• Join FlightAware (Why Join?)
  • Login
  • US Flag 
10:39PM EDT


 

Airport Tracker/Info


-or-


 

Live Flight TrackerFlight Track Log ✈ SWA1718 ✈ 11-Apr-2013 ✈ KMDW - KLAX

Flight Track Log - Related Links

Times and Time Zones

All times are in EDT time to prevent confusion due to time zone crossing. See the SWA1718 flight status page for this flight to view local times or setup timezone preferences in your user account.

Time Position Orientation Groundspeed Altitude Reporting Facility
EDT Latitude Longitude Course Direction KTS MPH feet Rate Location/Type
07:18AM 41.8167 -87.7333 282° West 175 201 1,900  Level Chicago TRACON
07:19AM 41.8167 -87.8167 270° West 233 268 3,500 1,680 Climbing Chicago TRACON
07:20AM 41.8000 -87.9000 255° West 251 289 5,300 2,580 Climbing Chicago TRACON
07:21AM 41.7775 -87.9767 249° West 246 283 8,700 3,120 Climbing Chicago Center
07:22AM 41.7728 -88.0789 266° West 284 327 11,600 1,860 Climbing Chicago Center
07:23AM 41.7744 -88.1886 271° West 296 341 12,500 1,740 Climbing Chicago Center
07:24AM 41.8952 -88.4520 282° West  Level FlightAware Approximate
07:24AM 41.7772 -88.3458 271° West 361 415 15,200  Level Chicago Center
07:25AM 41.7764 -88.4794 270° West 364 419 18,600 3,600 Climbing Chicago Center
07:27AM 41.7831 -88.6067 274° West 348 400 22,600 2,880 Climbing Chicago Center
07:28AM 41.7678 -88.7203 260° West 322 371 24,500 1,740 Climbing Chicago Center
07:29AM 41.7475 -88.8394 257° West 328 377 26,200 1,620 Climbing Chicago Center
07:30AM 41.7325 -88.9675 261° West 346 398 27,800 1,620 Climbing Chicago Center
07:31AM 41.7164 -89.0975 261° West 356 410 29,600 1,560 Climbing Chicago Center
07:32AM 41.6986 -89.2303 260° West 362 417 31,000 1,500 Climbing Chicago Center
07:33AM 41.6783 -89.3925 261° West 369 425 32,700 1,620 Climbing Chicago Center
07:34AM 41.6614 -89.5253 260° West 367 422 34,400 1,560 Climbing Chicago Center
07:35AM 41.6453 -89.6469 260° West 363 418 35,900 720 Climbing Chicago Center
07:36AM 41.6286 -89.7742 260° West 353 406 35,900  Level Chicago Center
07:37AM 41.6106 -89.9044 260° West 357 411 35,900  Level Chicago Center
07:38AM 41.5931 -90.0358 260° West 360 414 35,900  Level Chicago Center
07:39AM 41.5761 -90.1656 260° West 357 411 35,900  Level Chicago Center
07:40AM 41.5533 -90.3264 259° West 369 425 35,900  Level Chicago Center
07:41AM 41.5336 -90.4575 259° West 364 419 35,900  Level Chicago Center
07:42AM 41.5192 -90.5850 261° West 351 404 35,900  Level Chicago Center
07:43AM 41.4972 -90.7228 258° West 376 433 35,900  Level Chicago Center
07:44AM 41.4781 -90.8564 259° West 369 425 35,900  Level Chicago Center
07:45AM 41.4583 -90.9925 259° West 374 430 36,000  Climbing Chicago Center
07:46AM 41.4381 -91.1331 259° West 384 442 36,000  Level Chicago Center
07:47AM 41.4164 -91.2744 258° West 389 448 36,000 -60 Level Chicago Center
07:48AM 41.3944 -91.4225 259° West 386 444 35,900 -60 Descending Chicago Center
07:49AM 41.3742 -91.5633 259° West 388 447 35,900  Level Chicago Center
07:50AM 41.3528 -91.7022 258° West 385 443 35,900  Level Chicago Center
07:51AM 41.3275 -91.8686 259° West 385 443 35,900  Level Chicago Center
07:52AM 41.3050 -92.0061 258° West 383 441 35,900  Level Chicago Center
07:53AM 41.2844 -92.1464 259° West 386 444 35,900  Level Chicago Center
07:54AM 41.2619 -92.2878 258° West 391 450 36,000  Climbing Chicago Center
07:55AM 41.2392 -92.4314 258° West 396 456 35,900 -60 Descending Chicago Center
07:56AM 41.2150 -92.5750 257° West 401 461 35,900  Level Chicago Center
07:57AM 41.1919 -92.7183 258° West 401 461 35,900  Level Chicago Center
07:58AM 41.1644 -92.8922 258° West 405 466 35,900  Level Chicago Center
07:59AM 41.1406 -93.0392 258° West 412 474 36,000  Climbing Chicago Center
08:00AM 41.1167 -93.1842 258° West 410 472 35,900 -60 Descending Chicago Center
08:01AM 41.0914 -93.3336 257° West 417 480 35,900  Level Chicago Center
08:02AM 41.0656 -93.4825 257° West 419 482 36,000  Climbing Chicago Center
08:03AM 41.0386 -93.6328 257° West 422 486 35,900 -60 Descending Chicago Center
08:04AM 41.0167 -93.7792 259° West 415 478 35,900  Level Chicago Center
08:05AM 40.9842 -93.9608 257° West 423 487 35,900  Level Chicago Center
08:06AM 40.9583 -94.1106 257° West 424 488 36,000  Climbing Chicago Center
08:07AM 40.9333 -94.2597 258° West 420 483 35,900  Descending Chicago Center
08:08AM 40.9056 -94.4089 256° West 420 483 36,000  Climbing Chicago Center
08:09AM 40.8781 -94.5586 256° West 419 482 35,900 -60 Descending Minneapolis Center
08:10AM 40.8506 -94.7142 257° West 424 488 35,900  Level Minneapolis Center
08:11AM 40.8183 -94.8964 257° West 425 489 35,900  Level Minneapolis Center
08:13AM 40.7894 -95.0486 256° West 426 490 35,900  Level Minneapolis Center
08:14AM 40.7617 -95.2014 257° West 427 491 36,000  Climbing Minneapolis Center
08:15AM 40.7347 -95.3531 257° West 426 490 35,900 -60 Descending Minneapolis Center
08:16AM 40.7056 -95.5053 256° West 426 490 35,900  Level Minneapolis Center
08:17AM 40.6769 -95.6556 256° West 423 487 35,900  Level Minneapolis Center
08:18AM 40.6486 -95.8069 256° West 423 487 35,900  Level Minneapolis Center
08:19AM 40.6189 -95.9578 255° West 424 488 35,900  Level Minneapolis Center
08:20AM 40.5897 -96.1136 256° West 432 497 35,900  Level Minneapolis Center
08:21AM 40.5597 -96.2678 256° West 434 499 36,000  Climbing Minneapolis Center
08:22AM 40.5294 -96.4219 256° West 433 498 35,900  Descending Minneapolis Center
08:23AM 40.4986 -96.5761 255° West 434 499 36,000  Climbing Minneapolis Center
08:24AM 40.4686 -96.7289 256° West 433 498 36,000 -60 Level Minneapolis Center
08:25AM 40.4375 -96.8817 255° West 431 496 35,900 -60 Descending Minneapolis Center
08:26AM 40.4083 -97.0331 256° West 429 494 35,900  Level Minneapolis Center
08:27AM 40.3764 -97.1831 254° West 428 493 35,900  Level Minneapolis Center
08:28AM 40.3447 -97.3386 255° West 430 495 36,000  Climbing Minneapolis Center
08:29AM 40.3131 -97.4911 255° West 432 497 36,000  Level Minneapolis Center
08:30AM 40.2811 -97.6417 255° West 429 494 36,000  Level Minneapolis Center
08:31AM 40.2497 -97.7939 255° West 431 496 36,000  Level Minneapolis Center
08:32AM 40.2106 -97.9750 254° West 430 495 36,000  Level Minneapolis Center
08:33AM 40.1786 -98.1261 255° West 429 494 36,000  Level Minneapolis Center
08:34AM 40.1458 -98.2789 254° West 433 498 36,000  Level Minneapolis Center
08:35AM 40.1128 -98.4325 254° West 435 501 36,000  Level Minneapolis Center
08:36AM 40.0797 -98.5853 254° West 436 502 36,000  Level Minneapolis Center
08:37AM 40.0392 -98.7689 254° West 436 502 36,000  Level Minneapolis Center
08:38AM 40.0064 -98.9208 254° West 435 501 36,000  Level Minneapolis Center
08:39AM 39.9725 -99.0697 254° West 430 495 36,000  Level Minneapolis Center
08:40AM 39.9397 -99.2214 254° West 432 497 36,000  Level Minneapolis Center
08:41AM 39.9050 -99.3700 253° West 429 494 36,000  Level Minneapolis Center
08:42AM 39.8711 -99.5175 253° West 426 490 36,000  Level Minneapolis Center
08:43AM 39.8375 -99.6669 254° West 428 493 36,000  Level Minneapolis Center
08:44AM 39.8025 -99.8167 253° West 431 496 36,000  Level Minneapolis Center
08:45AM 39.7686 -99.9669 254° West 431 496 36,000  Level Minneapolis Center
08:46AM 39.7350 -100.1167 254° West 431 496 36,000  Level Minneapolis Center
08:47AM 39.6992 -100.2653 253° West 431 496 36,000  Level Minneapolis Center
08:48AM 39.6528 -100.4553 252° West 424 488 36,000 -60 Level Denver Center
08:50AM 39.6200 -100.5942 253° West 420 483 35,900  Descending Denver Center
08:51AM 39.5819 -100.7553 253° West 419 482 36,000  Climbing Denver Center
08:52AM 39.5486 -100.8931 253° West 420 483 36,000  Level Denver Center
08:53AM 39.5156 -101.0317 253° West 423 487 36,000  Level Denver Center
08:54AM 39.4764 -101.1886 252° West 412 474 36,000  Level Denver Center
08:55AM 39.4433 -101.3192 252° West 402 463 36,000  Level Denver Center
08:56AM 39.4114 -101.4519 253° West 401 461 36,000  Level Denver Center
08:57AM 39.3744 -101.6025 252° West 393 452 36,000  Level Denver Center
08:58AM 39.3439 -101.7336 253° West 396 456 36,000  Level Denver Center
08:59AM 39.3089 -101.8597 250° West 392 451 36,000  Level Denver Center
09:00AM 39.2708 -102.0078 252° West 390 449 36,000  Level Denver Center
09:01AM 39.2397 -102.1358 253° West 390 449 36,000  Level Denver Center
09:02AM 39.2061 -102.2611 251° West 388 447 36,000  Level Denver Center
09:03AM 39.1683 -102.4103 252° West 391 450 36,000  Level Denver Center
09:04AM 39.1356 -102.5364 252° West 391 450 36,000  Level Denver Center
09:05AM 39.1033 -102.6636 252° West 390 449 36,000  Level Denver Center
09:06AM 39.0661 -102.8078 252° West 392 451 36,000 -60 Level Denver Center
09:07AM 39.0311 -102.9400 251° West 388 447 35,900 -60 Descending Denver Center
09:08AM 38.9958 -103.0728 251° West 387 445 35,900  Level Denver Center
09:09AM 38.9617 -103.2017 251° West 379 436 36,000  Climbing Denver Center
09:10AM 38.9267 -103.3317 251° West 381 438 36,000  Level Denver Center
09:11AM 38.8917 -103.4619 251° West 382 440 36,000  Level Denver Center
09:12AM 38.8561 -103.5944 251° West 387 445 36,000  Level Denver Center
09:13AM 38.8200 -103.7278 251° West 385 443 36,000  Level Denver Center
09:14AM 38.7869 -103.8492 251° West 380 437 36,000  Level Denver Center
09:15AM 38.7494 -103.9889 251° West 374 430 36,000  Level Denver Center
09:16AM 38.7164 -104.1081 250° West 371 427 36,000  Level Denver Center
09:17AM 38.6817 -104.2342 251° West 375 432 36,000  Level Denver Center
09:18AM 38.6472 -104.3578 250° West 368 423 36,000  Level Denver Center
09:19AM 38.6133 -104.4808 251° West 365 420 36,000  Level Denver Center
09:20AM 38.5783 -104.6039 250° West 365 420 36,000  Level Denver Center
09:21AM 38.5442 -104.7264 250° West 363 418 36,000  Level Denver Center
09:22AM 38.5097 -104.8494 250° West 363 418 36,000  Level Denver Center
09:23AM 38.4750 -104.9725 250° West 364 419 36,000  Level Denver Center
09:24AM 38.4403 -105.0958 250° West 368 423 36,000  Level Denver Center
09:25AM 38.4042 -105.2169 249° West 364 419 36,000  Level Denver Center
09:26AM 38.3694 -105.3392 250° West 363 418 36,000  Level Denver Center
09:27AM 38.3325 -105.4667 250° West 365 420 36,000  Level Denver Center
09:28AM 38.2986 -105.5839 250° West 368 423 36,000  Level Denver Center
09:29AM 38.2589 -105.7206 250° West 368 423 36,000  Level Denver Center
09:30AM 38.2244 -105.8367 249° West 367 422 36,000  Level Denver Center
09:31AM 38.1903 -105.9531 250° West 368 423 36,000  Level Denver Center
09:32AM 38.1500 -106.0906 250° West 372 428 36,000  Level Denver Center
09:33AM 38.1103 -106.2169 248° West 376 433 36,000  Level Denver Center
09:34AM 38.0667 -106.3653 250° West 371 427 36,000  Level Denver Center
09:35AM 38.0311 -106.4850 249° West 378 435 36,000  Level Denver Center
09:36AM 37.9961 -106.6017 249° West 376 433 36,000  Level Denver Center
09:37AM 37.9539 -106.7394 249° West 375 432 36,000  Level Denver Center
09:38AM 37.9181 -106.8581 249° West 378 435 36,000  Level Denver Center
09:39AM 37.8817 -106.9736 248° West 371 427 36,000  Level Denver Center
09:40AM 37.8406 -107.1078 249° West 368 423 36,000  Level Denver Center
09:42AM 37.8078 -107.2161 249° West 368 423 36,000  Level Denver Center
09:44AM 37.7258 -107.4822 249° West 363 418 36,000  Level Denver Center
09:45AM 37.6836 -107.6144 248° West 362 417 36,000  Level Denver Center
09:46AM 37.6481 -107.7294 249° West 367 422 36,000  Level Denver Center
09:47AM 37.6064 -107.8614 248° West 365 420 36,000  Level Denver Center
09:48AM 37.5700 -107.9769 248° West 370 426 36,000  Level Denver Center
09:49AM 37.5347 -108.0917 249° West 368 423 36,000  Level Denver Center
09:50AM 37.4914 -108.2244 248° West 369 425 36,000  Level Denver Center
09:51AM 37.4542 -108.3386 248° West 369 425 36,000  Level Denver Center
09:52AM 37.4169 -108.4514 247° West 365 420 36,000  Level Denver Center
09:53AM 37.3744 -108.5853 248° West 370 426 36,000  Level Denver Center
09:54AM 37.3372 -108.7000 248° West 370 426 36,000  Level Denver Center
09:55AM 37.2931 -108.8336 247° West 372 428 36,000  Level Denver Center
09:56AM 37.2550 -108.9481 247° West 371 427 36,000  Level Denver Center
09:57AM 37.2175 -109.0639 248° West 374 430 36,000  Level Denver Center
09:58AM 37.1725 -109.1997 247° West 378 435 36,000  Level Denver Center
09:59AM 37.1350 -109.3142 248° West 374 430 36,000  Level Denver Center
10:00AM 37.0900 -109.4486 247° West 376 433 36,000  Level Denver Center
10:01AM 37.0511 -109.5625 247° West 374 430 36,000  Level Denver Center
10:02AM 37.0131 -109.6789 248° West 376 433 36,000  Level Denver Center
10:03AM 36.9675 -109.8133 247° West 377 434 36,000  Level Denver Center
10:04AM 36.9283 -109.9275 247° West 376 433 36,000  Level Denver Center
10:05AM 36.8828 -110.0625 247° West 378 435 36,000  Level Denver Center
10:06AM 36.8414 -110.1822 247° West 379 436 36,000  Level Denver Center
10:07AM 36.8006 -110.3022 247° West 377 434 36,000  Level Denver Center
10:08AM 36.7586 -110.4217 246° West 376 433 36,000  Level Denver Center
10:09AM 36.7186 -110.5417 247° West 375 432 36,000  Level Denver Center
10:10AM 36.6789 -110.6592 247° West 372 428 36,000  Level Denver Center
10:11AM 36.6369 -110.7786 246° West 374 430 36,000  Level Denver Center
10:12AM 36.5950 -110.8989 247° West 377 434 36,000  Level Denver Center
10:13AM 36.5436 -111.0406 246° West 375 432 36,000  Level Denver Center
10:14AM 36.5017 -111.1592 246° West 376 433 36,000  Level Denver Center
10:15AM 36.4594 -111.2772 246° West 375 432 36,000  Level Denver Center
10:16AM 36.4153 -111.3956 245° Southwest 376 433 36,000  Level Denver Center
10:17AM 36.3708 -111.5150 245° Southwest 379 436 36,000  Level Denver Center
10:18AM 36.3272 -111.6328 245° Southwest 378 435 36,000  Level Denver Center
10:19AM 36.2828 -111.7514 245° Southwest 378 435 36,000  Level Denver Center
10:20AM 36.2392 -111.8697 245° Southwest 378 435 36,000  Level Denver Center
10:21AM 36.2214 -111.9153 244° Southwest 375 432 36,000  Level Los Angeles Center
10:22AM 36.1767 -112.0319 245° Southwest 378 435 36,000  Level Los Angeles Center
10:23AM 36.1233 -112.1744 245° Southwest 383 441 36,000  Level Los Angeles Center
10:24AM 36.0783 -112.2925 245° Southwest 372 428 36,000  Level Los Angeles Center
10:25AM 36.0350 -112.4067 245° Southwest 366 421 36,000  Level Los Angeles Center
10:26AM 35.9886 -112.5258 244° Southwest 382 440 36,000  Level Los Angeles Center
10:27AM 35.9461 -112.6369 245° Southwest 381 438 36,000  Level Los Angeles Center
10:28AM 35.9022 -112.7528 245° Southwest 378 435 36,000  Level Los Angeles Center
10:29AM 35.8483 -112.8911 244° Southwest 377 434 36,000  Level Los Angeles Center
10:30AM 35.8036 -113.0078 245° Southwest 381 438 36,000  Level Los Angeles Center
10:31AM 35.7583 -113.1239 244° Southwest 381 438 36,000  Level Los Angeles Center
10:32AM 35.7131 -113.2414 245° Southwest 385 443 36,000  Level Los Angeles Center
10:33AM 35.6675 -113.3583 244° Southwest 384 442 36,000  Level Los Angeles Center
10:34AM 35.6117 -113.5000 244° Southwest 386 444 36,000  Level Los Angeles Center
10:35AM 35.5656 -113.6172 244° Southwest 386 444 36,000  Level Los Angeles Center
10:36AM 35.5189 -113.7350 244° Southwest 386 444 36,000  Level Los Angeles Center
10:37AM 35.4722 -113.8519 244° Southwest 384 442 36,000  Level Los Angeles Center
10:38AM 35.4178 -113.9872 244° Southwest 383 441 36,000  Level Los Angeles Center
10:39AM 35.3697 -114.1056 244° Southwest 385 443 36,000  Level Los Angeles Center
10:40AM 35.3222 -114.2247 244° Southwest 388 447 36,000  Level Los Angeles Center
10:41AM 35.2750 -114.3431 244° Southwest 386 444 36,000  Level Los Angeles Center
10:42AM 35.2269 -114.4611 244° Southwest 386 444 36,000  Level Los Angeles Center
10:44AM 35.1792 -114.5789 244° Southwest 386 444 36,000  Level Los Angeles Center
10:45AM 35.1308 -114.6992 244° Southwest 390 449 36,000  Level Los Angeles Center
10:46AM 35.0617 -114.8639 243° Southwest 389 448 36,000  Level Los Angeles Center
10:47AM 35.0131 -114.9828 243° Southwest 390 449 36,000  Level Los Angeles Center
10:48AM 34.9631 -115.1050 244° Southwest 394 453 36,000  Level Los Angeles Center
10:49AM 34.9136 -115.2242 243° Southwest 394 453 36,000  Level Los Angeles Center
10:50AM 34.8650 -115.3408 243° Southwest 391 450 36,000  Level Los Angeles Center
10:51AM 34.8147 -115.4586 243° Southwest 389 448 36,000  Level Los Angeles Center
10:52AM 34.7661 -115.5750 243° Southwest 392 451 36,000  Level Los Angeles Center
10:53AM 34.7047 -115.7175 242° Southwest 395 455 36,000  Level Los Angeles Center
10:54AM 34.6550 -115.8361 243° Southwest 396 456 36,000  Level Los Angeles Center
10:55AM 34.6047 -115.9550 243° Southwest 396 456 36,000  Level Los Angeles Center
10:56AM 34.5542 -116.0739 243° Southwest 396 456 36,000  Level Los Angeles Center
10:57AM 34.5039 -116.1936 243° Southwest 397 457 36,000  Level Los Angeles Center
10:58AM 34.4550 -116.3103 243° Southwest 393 452 36,000 -1,080 Level Los Angeles Center
10:59AM 34.4039 -116.4294 243° Southwest 396 456 33,900 -2,940 Descending Los Angeles Center
11:00AM 34.3422 -116.5717 242° Southwest 397 457 30,000 -3,300 Descending Los Angeles Center
11:01AM 34.2897 -116.6917 242° Southwest 401 461 27,100 -2,640 Descending Los Angeles Center
11:02AM 34.2383 -116.8103 242° Southwest 400 460 24,600 -2,400 Descending Los Angeles Center
11:03AM 34.1883 -116.9239 242° Southwest 390 449 22,200 -2,280 Descending Los Angeles Center
11:04AM 34.1406 -117.0331 242° Southwest 377 434 19,900 -1,860 Descending Los Angeles Center
11:05AM 34.1000 -117.1167 240° Southwest 345 397 19,000 -1,800 Descending Southern California TRACON
11:06AM 34.0500 -117.2333 243° Southwest 350 403 16,700 -1,800 Descending Southern California TRACON
11:07AM 34.0333 -117.3333 259° West 325 374 15,400 -1,740 Descending Southern California TRACON
11:08AM 34.0333 -117.4333 270° West 313 360 13,400 -1,980 Descending Southern California TRACON
11:09AM 34.0333 -117.5333 270° West 292 336 11,700 -1,620 Descending Southern California TRACON
11:10AM 34.0333 -117.6333 270° West 298 343 10,400 -1,020 Descending Southern California TRACON
11:11AM 34.0167 -117.7167 256° West 267 307 9,700 -960 Descending Southern California TRACON
11:12AM 34.0167 -117.8000 270° West 260 299 8,600 -1,260 Descending Southern California TRACON
11:13AM 34.0000 -117.8833 256° West 256 295 7,400 -1,140 Descending Southern California TRACON
11:14AM 34.0000 -117.9667 270° West 244 281 6,500 -960 Descending Southern California TRACON
11:15AM 33.9833 -118.0500 256° West 246 283 5,600 -900 Descending Southern California TRACON
11:16AM 33.9833 -118.1167 270° West 238 274 4,700 -1,140 Descending Southern California TRACON
11:17AM 33.9728 -118.1969 261° West 219 252 3,400 -1,200 Descending Los Angeles Center
11:18AM 33.9667 -118.2625 264° West 206 237 2,400 -1,020 Descending Los Angeles Center
11:19AM 33.9606 -118.3236 263° West 179 206 1,400 -900 Descending Los Angeles Center
11:20AM 33.9556 -118.3719 263° West 152 175 600 -780 Descending Los Angeles Center
11:23AM 33.9333 -118.4000 259° West  Level FlightAware Approximate